Terminal Aerodrome Forecast
Issued by NWS

Home | Current Version | Previous Version | Text Only | Print | Product List | Glossary On
Versions: 1 2 3 4 5 6 7 8 9 10 11 12 13 14 15
293
FTUS46 KMTR 301318 AAA
TAFMRY
TAF AMD
KMRY 301318Z 3013/0112 14003KT P6SM FEW007
      TEMPO 3013/3015 BKN004
     FM301700 29008KT P6SM SKC
     FM010300 25005KT P6SM FEW015
     FM010800 00000KT P6SM SCT007=

USA.gov is the U.S. government's official web portal to all federal, state and local government web resources and services.